Aeroporto :
LOGIN :

Iscrizione | Disclaimer

   EN    FR    IT 

 










Sommario :    VFR   VFR Marginale   IFR   IFR Intensivo   IFR Molto Intensivo
Visibilità : 
Base nubi : 
>= 8 km
>= 3000ft
5 / 8 km
1000 / 3000 ft
1500m / 5 km
500 / 1000 ft
800 / 1500m
200 / 500 ft
< 800m
< 200 ft
Simboli :   Temporali  Nebbia  Neve Forte  Precipitazioni Forti  Vento > 20 kt
SIGMETs :   Varie  Temporali  Ghiacco  Turbolenza  Onda orograficha  Ceneri Vulcaniche







- Altitudine del aeroporto : 256 ft
- Codice IATA : CFR
- Carte del aeroporto


LFRK - Caen

ULTIMO METAR :
  • 170700Z AUTO 25004KT 220V280 CAVOK 15/12 Q1020 NOSIG

METARs OBSOLETI :
  • 170630Z AUTO 24004KT 210V280 CAVOK 14/12 Q1020 NOSIG
  • 170600Z AUTO 26006KT CAVOK 14/11 Q1020 NOSIG
  • 170530Z AUTO 24004KT CAVOK 13/12 Q1020 NOSIG
  • 170500Z AUTO 23004KT 9999 SCT044 11/10 Q1020
  • 170430Z AUTO 22004KT 9999 OVC045 11/10 Q1020

TAF TAF LFRK
Valido dal 17 a 06 ore il 17 a 15 ore UTC


170500Z 1706/1715 22004KT 9999 SCT045
TEMPO 1713/1715 02010KT
Met : +33 2 31 26 68 11
Nessun NOTAM noto per questo aeroporto.



MetMap, La meteo Aeronautica in un colpo d'occhio ! - Copyright ORBIFLY Dicembre 2007 - Disclaimer

ORBIFLY MET'MAP TEAM :

Programmazione e sviluppo : Alexandra Zaïnal
Concezione e sviluppo : Baudouin d'Aumeries
Co-Programmazione e sviluppo : Marc-Olivier Méhu
Supporto tecnico e logistico : Manuel Goepfert
Aiuto per la traduzione : Arnaldo La Scala

Contatto : metmap@orbifly.com




FONTI E CREDITI :

   NOAA